createdAt,value
2018-12-31T00:03:56.122Z,102631.13
2018-12-31T00:06:21.885Z,102625.41
2018-12-31T00:08:47.685Z,102622.14
2018-12-31T00:11:13.456Z,102618.37
2018-12-31T00:16:24.788Z,102603.27
2018-12-31T00:18:50.589Z,102601.69
2018-12-31T00:21:16.366Z,102603.39
2018-12-31T00:23:42.127Z,102606.55
2018-12-31T00:26:07.925Z,102614.34
2018-12-31T00:28:33.683Z,102618.02
2018-12-31T00:30:59.439Z,102617.05
2018-12-31T00:33:25.212Z,102609.98
2018-12-31T00:35:50.969Z,102609.73
2018-12-31T00:38:16.734Z,102611.45
2018-12-31T00:40:42.525Z,102622.41
2018-12-31T00:43:08.417Z,102621.80
2018-12-31T00:45:34.198Z,102618.62
2018-12-31T00:47:59.981Z,102629.47
2018-12-31T00:50:26.995Z,102629.47
2018-12-31T00:52:53.428Z,102633.11
2018-12-31T00:58:26.422Z,102625.43
2018-12-31T01:00:52.247Z,102627.14
2018-12-31T01:03:18.029Z,102626.79
2018-12-31T01:05:43.831Z,102627.90
2018-12-31T01:08:09.609Z,102628.14
2018-12-31T01:10:35.467Z,102638.63
2018-12-31T01:13:01.234Z,102635.83
2018-12-31T01:15:26.996Z,102630.09
2018-12-31T01:17:53.440Z,102625.35
2018-12-31T01:20:19.256Z,102413.63
2018-12-31T01:22:44.990Z,102631.73
2018-12-31T01:25:11.585Z,102634.28
2018-12-31T01:27:37.345Z,102410.37
2018-12-31T01:30:44.771Z,102625.52
2018-12-31T01:33:10.542Z,102622.36
2018-12-31T01:35:36.302Z,102625.06
2018-12-31T01:38:02.080Z,102627.61
2018-12-31T01:40:28.496Z,102628.34
2018-12-31T01:42:54.234Z,102624.70
2018-12-31T01:45:20.063Z,102630.42
2018-12-31T01:47:45.841Z,102593.34
2018-12-31T01:50:11.642Z,102634.69
2018-12-31T01:52:37.412Z,102629.94
2018-12-31T01:55:44.877Z,102630.80
2018-12-31T01:58:10.663Z,102629.94
2018-12-31T02:00:36.438Z,102640.92
2018-12-31T02:03:02.207Z,102631.41
2018-12-31T02:05:27.995Z,102629.34
2018-12-31T02:07:53.749Z,102625.31
2018-12-31T02:10:19.656Z,102608.77
2018-12-31T02:13:27.211Z,102608.50
2018-12-31T02:15:53.002Z,102609.48
2018-12-31T02:18:19.362Z,102625.33
2018-12-31T02:20:45.137Z,102637.16
2018-12-31T02:23:10.890Z,102622.19
2018-12-31T02:25:36.657Z,102623.39
2018-12-31T02:28:02.620Z,102630.46
2018-12-31T02:30:28.380Z,102627.17
2018-12-31T02:32:54.819Z,102625.09
2018-12-31T02:35:20.688Z,102614.00
2018-12-31T02:37:46.546Z,102623.63
2018-12-31T02:40:32.636Z,102630.09
2018-12-31T02:42:58.417Z,102630.33
2018-12-31T02:45:24.176Z,102638.14
2018-12-31T02:47:49.974Z,102642.16
2018-12-31T02:50:15.729Z,102642.30
2018-12-31T02:52:41.498Z,102647.52
2018-12-31T02:55:07.272Z,102651.08
2018-12-31T02:57:33.050Z,102659.59
2018-12-31T02:59:59.160Z,102647.52
2018-12-31T03:02:26.485Z,102652.05
2018-12-31T03:04:52.263Z,102655.83
2018-12-31T03:07:18.276Z,102650.71
2018-12-31T03:09:44.054Z,102645.45
2018-12-31T03:12:09.841Z,102642.77
2018-12-31T03:14:35.594Z,102643.64
2018-12-31T03:17:01.382Z,102643.64
2018-12-31T03:19:27.138Z,102640.45
2018-12-31T03:21:53.068Z,102637.07
2018-12-31T03:24:18.838Z,102637.91
2018-12-31T03:26:44.614Z,102640.36
2018-12-31T03:29:10.401Z,102641.46
2018-12-31T03:31:36.180Z,102633.66
2018-12-31T03:34:02.192Z,102635.00
2018-12-31T03:36:27.938Z,102628.89
2018-12-31T03:38:54.562Z,102620.02
2018-12-31T03:41:20.342Z,102625.98
2018-12-31T03:43:46.120Z,102615.99
2018-12-31T03:46:12.056Z,102613.05
2018-12-31T03:48:38.343Z,102614.38
2018-12-31T03:51:04.165Z,102605.37
2018-12-31T03:53:29.946Z,102608.92
2018-12-31T03:55:55.716Z,102613.91
2018-12-31T03:58:21.492Z,102617.32
2018-12-31T04:00:47.256Z,102617.32
2018-12-31T04:03:13.030Z,102621.44
2018-12-31T04:05:39.033Z,102616.82
2018-12-31T04:08:04.783Z,102612.06
2018-12-31T04:10:30.737Z,102611.09
2018-12-31T04:12:56.590Z,102613.77
2018-12-31T04:15:22.372Z,102616.09
2018-12-31T04:17:48.171Z,102618.16
2018-12-31T04:20:13.951Z,102521.55
2018-12-31T04:22:39.704Z,102620.37
2018-12-31T04:25:05.481Z,102618.16
2018-12-31T04:27:31.253Z,102622.56
2018-12-31T04:29:57.026Z,102622.33
2018-12-31T04:32:22.788Z,102625.73
2018-12-31T04:34:48.558Z,102627.45
2018-12-31T04:37:14.319Z,102632.08
2018-12-31T04:39:40.097Z,102631.47
2018-12-31T04:42:05.850Z,102632.81
2018-12-31T04:44:31.621Z,102637.44
2018-12-31T04:46:57.396Z,102637.44
2018-12-31T04:49:23.180Z,102640.86
2018-12-31T04:51:48.982Z,102640.13
2018-12-31T04:54:14.735Z,102639.25
2018-12-31T04:56:40.517Z,102632.31
2018-12-31T04:59:06.283Z,102627.92
2018-12-31T05:01:32.065Z,102631.95
2018-12-31T05:03:57.841Z,102632.17
2018-12-31T05:06:23.617Z,102627.92
2018-12-31T05:08:49.374Z,102634.02
2018-12-31T05:11:15.155Z,102639.86
2018-12-31T05:13:40.911Z,102644.98
2018-12-31T05:16:06.684Z,102651.92
2018-12-31T05:18:32.443Z,102643.87
2018-12-31T05:20:58.248Z,102645.72
2018-12-31T05:23:24.021Z,102645.35
2018-12-31T05:25:49.797Z,102644.38
2018-12-31T05:28:15.580Z,102640.73
2018-12-31T05:30:41.359Z,102633.89
2018-12-31T05:33:07.121Z,102626.22
2018-12-31T05:35:32.891Z,102625.48
2018-12-31T05:37:58.670Z,102630.84
2018-12-31T05:40:24.428Z,102634.86
2018-12-31T05:42:50.203Z,102639.16
2018-12-31T05:45:15.971Z,102640.22
2018-12-31T05:47:41.748Z,102640.59
2018-12-31T05:50:07.506Z,102641.09
2018-12-31T05:52:33.282Z,102638.15
2018-12-31T05:54:59.036Z,102630.73
2018-12-31T05:57:24.831Z,102631.95
2018-12-31T05:59:50.604Z,102639.98
2018-12-31T06:02:16.380Z,102640.22
2018-12-31T06:04:42.210Z,102642.54
2018-12-31T06:07:07.944Z,102640.73
2018-12-31T06:09:33.731Z,102633.52
2018-12-31T06:11:59.510Z,102637.55
2018-12-31T06:14:25.283Z,102643.05
2018-12-31T06:16:51.060Z,102647.30
2018-12-31T06:19:16.822Z,102658.16
2018-12-31T06:21:42.645Z,102651.55
2018-12-31T06:24:08.402Z,102665.70
2018-12-31T06:26:34.181Z,102667.54
2018-12-31T06:28:59.972Z,102669.72
2018-12-31T06:31:25.750Z,102664.36
2018-12-31T06:33:51.547Z,102668.52
2018-12-31T06:36:17.309Z,102671.33
2018-12-31T06:38:43.096Z,102670.22
2018-12-31T06:41:08.837Z,102676.92
2018-12-31T06:43:34.629Z,102673.97
2018-12-31T06:46:00.394Z,102670.22
2018-12-31T06:48:26.192Z,102671.93
2018-12-31T06:50:51.966Z,102673.14
2018-12-31T06:53:17.743Z,102680.58
2018-12-31T06:55:43.505Z,102689.36
2018-12-31T06:58:09.286Z,102680.34
2018-12-31T07:00:54.946Z,102681.92
2018-12-31T07:03:20.739Z,102681.92
2018-12-31T07:05:46.495Z,102686.04
2018-12-31T07:08:12.284Z,102686.55
2018-12-31T07:10:38.055Z,102690.80
2018-12-31T07:13:03.829Z,102695.80
2018-12-31T07:15:29.601Z,102700.09
2018-12-31T07:17:55.359Z,102701.90
2018-12-31T07:20:21.151Z,102707.03
2018-12-31T07:22:46.908Z,102712.27
2018-12-31T07:25:12.692Z,102714.57
2018-12-31T07:27:38.466Z,102716.55
2018-12-31T07:33:17.529Z,102705.92
2018-12-31T07:35:43.329Z,102715.45
2018-12-31T07:38:09.086Z,102708.37
2018-12-31T07:40:34.856Z,102709.11
2018-12-31T07:43:00.616Z,102708.61
2018-12-31T07:45:26.386Z,102701.91
2018-12-31T07:47:52.167Z,102717.89
2018-12-31T07:50:17.953Z,102710.69
2018-12-31T07:52:43.730Z,102707.27
2018-12-31T07:55:09.512Z,102713.61
2018-12-31T07:57:35.278Z,102704.48
2018-12-31T08:00:01.189Z,102707.03
2018-12-31T08:02:26.948Z,102704.86
2018-12-31T08:07:26.212Z,102710.92
2018-12-31T08:09:51.984Z,102711.92
2018-12-31T08:12:17.765Z,102714.24
2018-12-31T08:14:43.552Z,102717.89
2018-12-31T08:17:09.323Z,102717.77
2018-12-31T08:19:35.086Z,102723.12
2018-12-31T08:22:00.881Z,102724.10
2018-12-31T08:24:26.636Z,102719.61
2018-12-31T08:26:52.422Z,102715.69
2018-12-31T08:29:18.177Z,102714.34
2018-12-31T08:31:43.946Z,102718.37
2018-12-31T08:34:09.729Z,102735.34
2018-12-31T08:36:35.516Z,102733.77
2018-12-31T08:39:01.276Z,102724.61
2018-12-31T08:41:27.050Z,102725.21
2018-12-31T08:43:52.832Z,102728.77
2018-12-31T08:46:18.632Z,102737.52
2018-12-31T08:48:44.405Z,102734.50
2018-12-31T08:51:10.192Z,102731.19
2018-12-31T08:53:35.959Z,102730.58
2018-12-31T08:56:01.752Z,102725.11
2018-12-31T08:58:27.510Z,102722.66
2018-12-31T09:00:53.266Z,102721.79
2018-12-31T09:03:19.042Z,102730.20
2018-12-31T09:05:44.822Z,102722.33
2018-12-31T09:08:10.593Z,102717.06
2018-12-31T09:10:36.367Z,102720.48
2018-12-31T09:13:02.134Z,102731.72
2018-12-31T09:15:27.900Z,102730.88
2018-12-31T09:17:53.699Z,102718.30
2018-12-31T09:20:19.460Z,102722.33
2018-12-31T09:22:45.242Z,102717.55
2018-12-31T09:25:10.994Z,102716.58
2018-12-31T09:27:36.761Z,102710.84
2018-12-31T09:30:44.212Z,102702.69
2018-12-31T09:33:09.990Z,102706.58
2018-12-31T09:35:35.742Z,102703.29
2018-12-31T09:38:01.520Z,102701.20
2018-12-31T09:40:27.308Z,102698.89
2018-12-31T09:42:53.085Z,102696.20
2018-12-31T09:45:18.868Z,102695.83
2018-12-31T09:47:44.648Z,102696.42
2018-12-31T09:50:10.418Z,102693.27
2018-12-31T09:52:36.200Z,102690.94
2018-12-31T09:55:43.649Z,102695.20
2018-12-31T09:58:09.428Z,102699.33
2018-12-31T10:00:35.207Z,102694.69
2018-12-31T10:03:01.024Z,102682.59
2018-12-31T10:05:26.800Z,102685.25
2018-12-31T10:07:52.562Z,102686.69
2018-12-31T10:10:18.349Z,102681.32
2018-12-31T10:12:44.114Z,102683.25
2018-12-31T10:15:09.904Z,102679.45
2018-12-31T10:17:35.676Z,102669.41
2018-12-31T10:20:01.459Z,102666.50
2018-12-31T10:22:27.233Z,102673.05
2018-12-31T10:24:53.014Z,102673.38
2018-12-31T10:27:18.805Z,102665.46
2018-12-31T10:29:44.549Z,102656.89
2018-12-31T10:32:10.323Z,102654.34
2018-12-31T10:34:36.098Z,102654.20
2018-12-31T10:37:01.864Z,102656.16
2018-12-31T10:39:27.651Z,102660.53
2018-12-31T10:41:53.421Z,102665.39
2018-12-31T10:44:19.191Z,102655.77
2018-12-31T10:46:45.236Z,102654.72
2018-12-31T10:49:12.669Z,102651.95
2018-12-31T10:51:38.444Z,102657.70
2018-12-31T10:54:04.203Z,102649.63
2018-12-31T10:56:29.995Z,102649.34
2018-12-31T10:58:55.778Z,102653.05
2018-12-31T11:01:21.638Z,102657.37
2018-12-31T11:03:47.448Z,102652.06
2018-12-31T11:06:13.217Z,102649.34
2018-12-31T11:08:38.988Z,102645.92
2018-12-31T11:11:04.770Z,102646.97
2018-12-31T11:13:30.519Z,102645.20
2018-12-31T11:15:56.291Z,102648.94
2018-12-31T11:18:22.086Z,102644.58
2018-12-31T11:20:48.597Z,102642.22
2018-12-31T11:23:14.351Z,102634.76
2018-12-31T11:25:40.214Z,102633.16
2018-12-31T11:28:06.069Z,102636.94
2018-12-31T11:30:31.852Z,102631.70
2018-12-31T11:32:57.623Z,102627.89
2018-12-31T11:35:23.382Z,102629.09
2018-12-31T11:37:49.157Z,102628.71
2018-12-31T11:40:14.917Z,102618.64
2018-12-31T11:42:40.699Z,102614.28
2018-12-31T11:45:06.455Z,102607.98
2018-12-31T11:47:32.236Z,102606.85
2018-12-31T11:49:59.635Z,102607.31
2018-12-31T11:52:25.698Z,102612.69
2018-12-31T11:54:51.445Z,102605.55
2018-12-31T11:57:17.209Z,102604.66
2018-12-31T11:59:42.967Z,102605.65
2018-12-31T12:02:08.770Z,102602.39
2018-12-31T12:04:35.421Z,102600.52
2018-12-31T12:07:02.016Z,102595.91
2018-12-31T12:09:28.234Z,102589.60
2018-12-31T12:11:54.022Z,102589.60
2018-12-31T12:14:20.223Z,102581.71
2018-12-31T12:16:46.009Z,102574.83
2018-12-31T12:19:11.799Z,102571.81
2018-12-31T12:21:37.560Z,102568.84
2018-12-31T12:24:03.330Z,102574.50
2018-12-31T12:26:29.088Z,102575.84
2018-12-31T12:28:54.868Z,102576.83
2018-12-31T12:31:20.628Z,102577.10
2018-12-31T12:33:48.313Z,102576.77
2018-12-31T12:36:14.071Z,102574.62
2018-12-31T12:38:39.840Z,102577.75
2018-12-31T12:41:05.602Z,102575.64
2018-12-31T12:43:31.388Z,102575.90
2018-12-31T12:45:57.152Z,102563.78
2018-12-31T12:48:24.829Z,102567.20
2018-12-31T12:50:50.591Z,102571.88
2018-12-31T12:53:16.376Z,102567.48
2018-12-31T12:55:42.141Z,102577.14
2018-12-31T12:58:07.937Z,102567.57
2018-12-31T13:00:33.870Z,102564.88
2018-12-31T13:05:46.044Z,102562.32
2018-12-31T13:08:11.819Z,102569.68
2018-12-31T13:10:37.577Z,102570.62
2018-12-31T13:13:03.338Z,102557.78
2018-12-31T13:15:31.010Z,102559.84
2018-12-31T13:17:56.790Z,102558.14
2018-12-31T13:20:22.569Z,102560.48
2018-12-31T13:22:48.321Z,102555.73
2018-12-31T13:25:14.110Z,102554.47
2018-12-31T13:27:39.872Z,102548.64
2018-12-31T13:30:10.520Z,102545.83
2018-12-31T13:32:35.225Z,102547.45
2018-12-31T13:35:01.010Z,102542.50
2018-12-31T13:37:26.862Z,102538.78
2018-12-31T13:39:52.636Z,102531.94
2018-12-31T13:42:20.332Z,102529.17
2018-12-31T13:44:46.085Z,102530.52
2018-12-31T13:47:31.747Z,102533.48
2018-12-31T13:49:57.542Z,102533.48
2018-12-31T13:52:23.308Z,102538.72
2018-12-31T13:54:49.141Z,102531.86
2018-12-31T13:57:16.813Z,102528.86
2018-12-31T13:59:42.586Z,102533.14
2018-12-31T14:02:08.369Z,102532.55
2018-12-31T14:04:34.199Z,102537.38
2018-12-31T14:06:59.958Z,102529.95
2018-12-31T14:09:25.721Z,102533.55
2018-12-31T14:11:53.509Z,102524.27
2018-12-31T14:14:19.264Z,102525.61
2018-12-31T14:16:45.027Z,102539.66
2018-12-31T14:19:10.776Z,102535.03
2018-12-31T14:21:36.583Z,102533.55
2018-12-31T14:24:02.342Z,102538.66
2018-12-31T14:26:28.109Z,102538.75
2018-12-31T14:28:53.869Z,102536.18
2018-12-31T14:31:19.647Z,102536.05
2018-12-31T14:33:45.401Z,102532.70
2018-12-31T14:36:11.257Z,102529.65
2018-12-31T14:38:37.012Z,102531.92
2018-12-31T14:41:02.786Z,102530.73
2018-12-31T14:43:30.445Z,102538.17
2018-12-31T14:45:56.244Z,102538.50
2018-12-31T14:48:22.126Z,102534.46
2018-12-31T14:50:47.882Z,102539.44
2018-12-31T14:53:13.645Z,102539.00
2018-12-31T14:55:39.413Z,102539.44
2018-12-31T14:58:05.300Z,102537.22
2018-12-31T15:00:31.068Z,102533.48
2018-12-31T15:02:56.852Z,102535.66
2018-12-31T15:05:22.633Z,102525.84
2018-12-31T15:07:48.409Z,102527.59
2018-12-31T15:10:55.882Z,102529.74
2018-12-31T15:13:21.664Z,102530.50
2018-12-31T15:15:47.428Z,102523.08
2018-12-31T15:18:13.204Z,102526.25
2018-12-31T15:20:38.963Z,102520.10
2018-12-31T15:23:04.734Z,102521.52
2018-12-31T15:25:30.497Z,102515.48
2018-12-31T15:27:56.286Z,102521.07
2018-12-31T15:30:22.061Z,102514.97
2018-12-31T15:32:47.837Z,102511.30
2018-12-31T15:35:13.665Z,102509.42
2018-12-31T15:37:41.380Z,102513.36
2018-12-31T15:43:34.212Z,102503.89
2018-12-31T15:45:59.970Z,102515.79
2018-12-31T15:48:25.752Z,102508.08
2018-12-31T15:50:51.531Z,102504.87
2018-12-31T15:53:17.336Z,102496.52
2018-12-31T15:56:04.886Z,102503.05
2018-12-31T15:58:30.679Z,102503.05
2018-12-31T16:00:56.433Z,102508.79
2018-12-31T16:03:22.226Z,102503.15
2018-12-31T16:05:47.992Z,102502.07
2018-12-31T16:08:13.772Z,102505.42
2018-12-31T16:10:39.527Z,102504.75
2018-12-31T16:13:05.304Z,102501.25
2018-12-31T16:15:31.076Z,102503.52
2018-12-31T16:17:56.840Z,102496.17
2018-12-31T16:20:22.612Z,102491.30
2018-12-31T16:22:50.300Z,102492.14
2018-12-31T16:25:16.069Z,102488.94
2018-12-31T16:27:41.844Z,102476.63
2018-12-31T16:30:07.614Z,102480.45
2018-12-31T16:32:33.386Z,102470.89
2018-12-31T16:34:59.161Z,102473.47
2018-12-31T16:37:24.933Z,102472.50
2018-12-31T16:39:52.617Z,102484.35
2018-12-31T16:42:18.393Z,102477.87
2018-12-31T16:44:44.177Z,102478.86
2018-12-31T16:47:09.954Z,102472.86
2018-12-31T16:49:35.727Z,102467.55
2018-12-31T16:52:02.764Z,102468.45
2018-12-31T16:54:29.224Z,102425.27
2018-12-31T16:56:55.001Z,102472.81
2018-12-31T16:59:20.779Z,102466.18
2018-12-31T17:01:46.670Z,102469.55
2018-12-31T17:04:12.463Z,102470.13
2018-12-31T17:06:38.229Z,102473.77
2018-12-31T17:09:45.701Z,102462.35
2018-12-31T17:12:11.489Z,102460.59
2018-12-31T17:14:37.243Z,102469.44
2018-12-31T17:17:03.025Z,102467.64
2018-12-31T17:19:28.784Z,102468.38
2018-12-31T17:21:54.553Z,102471.63
2018-12-31T17:24:20.312Z,102466.66
2018-12-31T17:26:46.075Z,102467.66
2018-12-31T17:29:11.853Z,102466.55
2018-12-31T17:31:37.617Z,102463.05
2018-12-31T17:34:03.494Z,102466.94
2018-12-31T17:36:29.258Z,102460.21
2018-12-31T17:38:55.047Z,102447.02
2018-12-31T17:41:20.816Z,102448.62
2018-12-31T17:43:46.600Z,102442.27
2018-12-31T17:46:12.395Z,102446.03
2018-12-31T17:48:38.172Z,102440.56
2018-12-31T17:51:04.130Z,102442.73
2018-12-31T17:53:29.911Z,102442.05
2018-12-31T17:55:55.673Z,102437.37
2018-12-31T17:58:21.467Z,102431.88
2018-12-31T18:00:47.223Z,102430.89
2018-12-31T18:03:13.017Z,102442.00
2018-12-31T18:05:38.797Z,102434.86
2018-12-31T18:08:06.490Z,102425.81
2018-12-31T18:10:32.247Z,102426.03
2018-12-31T18:12:58.035Z,102432.89
2018-12-31T18:15:23.805Z,102426.53
2018-12-31T18:17:49.566Z,102419.45
2018-12-31T18:20:15.353Z,102418.11
2018-12-31T18:22:43.020Z,102421.16
2018-12-31T18:25:08.883Z,102419.21
2018-12-31T18:27:34.634Z,102415.27
2018-12-31T18:30:00.405Z,102422.98
2018-12-31T18:32:26.184Z,102425.09
2018-12-31T18:34:51.958Z,102422.50
2018-12-31T18:37:17.716Z,102422.41
2018-12-31T18:39:49.180Z,102414.70
2018-12-31T18:42:11.179Z,102414.08
2018-12-31T18:44:36.945Z,102412.31
2018-12-31T18:47:02.713Z,102415.00
2018-12-31T18:49:28.511Z,102412.52
2018-12-31T18:51:54.286Z,102410.70
2018-12-31T18:54:21.963Z,102413.23
2018-12-31T18:56:47.737Z,102404.03
2018-12-31T18:59:13.502Z,102405.89
2018-12-31T19:01:39.290Z,102408.22
2018-12-31T19:04:05.062Z,102405.66
2018-12-31T19:06:30.835Z,102411.12
2018-12-31T19:08:56.635Z,102411.98
2018-12-31T19:11:24.300Z,102408.28
2018-12-31T19:13:50.057Z,102400.45
2018-12-31T19:16:15.843Z,102405.27
2018-12-31T19:18:41.606Z,102394.36
2018-12-31T19:21:07.383Z,102384.94
2018-12-31T19:23:33.151Z,102374.39
2018-12-31T19:25:58.929Z,102378.38
2018-12-31T19:28:24.681Z,102365.92
2018-12-31T19:30:50.465Z,102362.52
2018-12-31T19:33:16.248Z,102355.16
2018-12-31T19:35:42.040Z,102350.06
2018-12-31T19:38:07.798Z,102352.03
2018-12-31T19:40:33.584Z,102348.34
2018-12-31T19:42:59.351Z,102344.58
2018-12-31T19:45:25.142Z,102361.06
2018-12-31T19:47:50.897Z,102346.70
2018-12-31T19:50:16.686Z,102348.97
2018-12-31T19:52:42.436Z,102342.16
2018-12-31T19:55:08.203Z,102337.92
2018-12-31T19:57:33.981Z,102337.56
2018-12-31T20:02:55.610Z,102346.11
2018-12-31T20:05:21.382Z,102334.16
2018-12-31T20:07:47.144Z,102327.09
2018-12-31T20:10:13.140Z,102324.13
2018-12-31T20:12:38.898Z,102318.88
2018-12-31T20:15:04.661Z,102313.86
2018-12-31T20:17:30.429Z,102309.83
2018-12-31T20:19:56.216Z,102305.80
2018-12-31T20:22:21.990Z,102301.77
2018-12-31T20:24:47.762Z,102306.16
2018-12-31T20:27:15.436Z,102300.51
2018-12-31T20:29:41.187Z,102304.81
2018-12-31T20:32:06.962Z,102296.48
2018-12-31T20:34:32.725Z,102297.82
2018-12-31T20:36:58.505Z,102298.81
2018-12-31T20:39:24.278Z,102295.14
2018-12-31T20:41:50.046Z,102288.77
2018-12-31T20:44:15.802Z,102286.72
2018-12-31T20:46:41.571Z,102289.25
2018-12-31T20:49:07.339Z,102286.80
2018-12-31T20:51:33.117Z,102285.81
2018-12-31T20:53:58.875Z,102292.53
2018-12-31T20:56:24.649Z,102288.20
2018-12-31T20:58:50.412Z,102284.83
2018-12-31T21:03:47.934Z,102270.09
2018-12-31T21:06:13.702Z,102271.16
2018-12-31T21:08:39.487Z,102267.13
2018-12-31T21:11:25.143Z,102263.10
2018-12-31T21:13:51.218Z,102263.10
2018-12-31T21:16:16.974Z,102269.03
2018-12-31T21:18:42.751Z,102265.16
2018-12-31T21:21:08.529Z,102270.02
2018-12-31T21:23:34.329Z,102251.64
2018-12-31T21:26:00.094Z,102251.36
2018-12-31T21:28:25.884Z,102248.32
2018-12-31T21:30:53.563Z,102241.40
2018-12-31T21:33:19.342Z,102244.44
2018-12-31T21:35:45.123Z,102233.81
2018-12-31T21:38:10.907Z,102238.35
2018-12-31T21:40:36.661Z,102228.52
2018-12-31T21:43:02.432Z,102231.48
2018-12-31T21:45:28.212Z,102229.06
2018-12-31T21:47:55.897Z,102222.34
2018-12-31T21:50:21.671Z,102219.66
2018-12-31T21:52:47.823Z,102200.21
2018-12-31T21:55:15.120Z,102198.23
2018-12-31T21:57:40.868Z,102186.50
2018-12-31T22:00:48.308Z,102187.33
2018-12-31T22:03:14.109Z,102178.51
2018-12-31T22:05:39.891Z,102189.34
2018-12-31T22:08:05.662Z,102174.41
2018-12-31T22:10:33.319Z,102173.77
2018-12-31T22:12:59.113Z,102151.75
2018-12-31T22:15:24.881Z,102152.39
2018-12-31T22:17:58.401Z,102153.33
2018-12-31T22:20:24.197Z,102143.92
2018-12-31T22:22:49.969Z,102137.12
2018-12-31T22:25:17.672Z,102133.45
2018-12-31T22:27:43.423Z,102144.68
2018-12-31T22:30:09.194Z,102133.09
2018-12-31T22:32:35.064Z,102118.11
2018-12-31T22:35:00.844Z,102122.63
2018-12-31T22:37:26.608Z,102119.86
2018-12-31T22:39:52.435Z,102108.80
2018-12-31T22:45:05.709Z,102087.93
2018-12-31T22:47:31.479Z,102089.27
2018-12-31T22:49:57.269Z,102075.88
2018-12-31T22:52:23.012Z,102074.53
2018-12-31T22:54:48.780Z,102071.84
2018-12-31T22:57:14.540Z,102070.14
2018-12-31T22:59:40.323Z,102066.70
2018-12-31T23:02:06.171Z,102051.14
2018-12-31T23:04:31.984Z,102058.37
2018-12-31T23:06:57.850Z,102041.09
2018-12-31T23:09:25.527Z,102037.06
2018-12-31T23:11:51.294Z,102035.72
2018-12-31T23:14:17.197Z,102034.22
2018-12-31T23:16:43.053Z,102025.33
2018-12-31T23:19:08.807Z,102025.17
2018-12-31T23:21:34.571Z,102024.81
2018-12-31T23:24:02.234Z,102017.68
2018-12-31T23:26:28.031Z,102006.86
2018-12-31T23:28:53.799Z,102003.37
2018-12-31T23:31:19.578Z,102003.37
2018-12-31T23:33:45.330Z,102008.91
2018-12-31T23:36:12.354Z,102000.69
2018-12-31T23:38:38.931Z,101998.19
2018-12-31T23:41:06.468Z,101992.82
2018-12-31T23:43:32.242Z,101988.79
2018-12-31T23:45:58.036Z,101983.06
2018-12-31T23:48:23.819Z,101982.93
2018-12-31T23:50:49.601Z,101972.37
2018-12-31T23:53:15.359Z,101965.02
2018-12-31T23:55:41.133Z,101968.50
2018-12-31T23:58:06.886Z,101965.75
